createdAt,value
2023-05-05T00:00:31.328Z,59.11
2023-05-05T00:02:59.964Z,59.39
2023-05-05T00:05:28.359Z,58.75
2023-05-05T00:07:56.620Z,59.01
2023-05-05T00:10:26.710Z,59.20
2023-05-05T00:12:54.971Z,59.12
2023-05-05T00:15:23.088Z,59.25
2023-05-05T00:17:51.255Z,59.19
2023-05-05T00:20:21.153Z,59.47
2023-05-05T00:22:49.269Z,59.46
2023-05-05T00:25:17.816Z,59.22
2023-05-05T00:27:47.346Z,59.06
2023-05-05T00:30:16.638Z,59.33
2023-05-05T00:32:45.205Z,59.75
2023-05-05T00:35:13.882Z,59.45
2023-05-05T00:37:42.486Z,59.32
2023-05-05T00:40:12.519Z,59.43
2023-05-05T00:42:42.514Z,59.24
2023-05-05T00:45:13.876Z,59.47
2023-05-05T00:47:45.748Z,59.51
2023-05-05T00:50:23.975Z,59.54
2023-05-05T00:52:57.214Z,59.50
2023-05-05T00:55:26.139Z,59.47
2023-05-05T00:57:54.940Z,59.44
2023-05-05T01:00:26.328Z,59.75
2023-05-05T01:02:55.337Z,59.44
2023-05-05T01:05:27.330Z,60.01
2023-05-05T01:08:16.450Z,60.10
2023-05-05T01:10:53.744Z,60.25
2023-05-05T01:13:31.929Z,60.28
2023-05-05T01:16:11.710Z,60.50
2023-05-05T01:18:50.860Z,61.04
2023-05-05T01:21:27.166Z,60.51
2023-05-05T01:24:19.865Z,60.64
2023-05-05T01:27:15.285Z,61.50
2023-05-05T01:30:06.686Z,61.15
2023-05-05T01:32:43.206Z,61.28
2023-05-05T01:35:17.449Z,61.57
2023-05-05T01:37:52.115Z,61.91
2023-05-05T01:40:27.462Z,61.68
2023-05-05T01:42:58.373Z,61.92
2023-05-05T01:45:33.405Z,61.14
2023-05-05T01:48:06.111Z,61.32
2023-05-05T01:50:37.562Z,61.19
2023-05-05T01:53:09.492Z,61.47
2023-05-05T01:55:41.203Z,61.87
2023-05-05T01:58:12.513Z,61.71
2023-05-05T02:00:42.848Z,61.61
2023-05-05T02:03:16.041Z,61.77
2023-05-05T02:05:50.110Z,61.81
2023-05-05T02:08:20.131Z,61.96
2023-05-05T02:10:50.728Z,61.79
2023-05-05T02:13:20.331Z,61.97
2023-05-05T02:15:51.338Z,61.97
2023-05-05T02:18:22.994Z,62.12
2023-05-05T02:20:53.163Z,62.13
2023-05-05T02:23:21.826Z,62.03
2023-05-05T02:25:54.378Z,61.87
2023-05-05T02:28:34.876Z,62.41
2023-05-05T02:31:08.205Z,62.52
2023-05-05T02:33:41.551Z,62.57
2023-05-05T02:36:17.709Z,62.70
2023-05-05T02:38:57.589Z,62.85
2023-05-05T02:41:30.795Z,62.94
2023-05-05T02:44:06.382Z,63.52
2023-05-05T02:46:38.466Z,62.92
2023-05-05T02:49:09.152Z,63.40
2023-05-05T02:51:39.155Z,63.44
2023-05-05T02:54:13.249Z,63.92
2023-05-05T02:56:48.486Z,63.66
2023-05-05T02:59:23.566Z,63.43
2023-05-05T03:02:07.838Z,63.95
2023-05-05T03:04:44.001Z,63.83
2023-05-05T03:11:42.336Z,63.65
2023-05-05T03:14:14.189Z,63.53
2023-05-05T03:16:45.510Z,63.34
2023-05-05T03:19:19.608Z,63.37
2023-05-05T03:21:53.566Z,63.34
2023-05-05T03:24:22.773Z,63.70
2023-05-05T03:26:59.331Z,63.28
2023-05-05T03:29:34.002Z,63.67
2023-05-05T03:32:04.675Z,63.27
2023-05-05T03:34:36.020Z,63.55
2023-05-05T03:37:06.064Z,63.24
2023-05-05T03:39:34.953Z,63.34
2023-05-05T03:42:03.949Z,63.16
2023-05-05T03:44:34.649Z,63.47
2023-05-05T03:47:03.436Z,63.84
2023-05-05T03:49:34.074Z,63.99
2023-05-05T03:52:02.258Z,63.79
2023-05-05T03:54:32.411Z,63.63
2023-05-05T03:57:01.080Z,63.69
2023-05-05T03:59:29.160Z,63.80
2023-05-05T04:01:58.014Z,63.54
2023-05-05T04:04:26.701Z,63.75
2023-05-05T04:06:55.009Z,63.69
2023-05-05T04:09:23.466Z,63.94
2023-05-05T04:11:52.901Z,63.79
2023-05-05T04:14:21.421Z,63.91
2023-05-05T04:16:49.760Z,63.72
2023-05-05T04:19:18.551Z,63.70
2023-05-05T04:21:46.965Z,64.42
2023-05-05T04:24:15.144Z,64.21
2023-05-05T04:26:43.198Z,64.45
2023-05-05T04:29:13.121Z,65.15
2023-05-05T04:31:41.874Z,64.75
2023-05-05T04:34:10.176Z,64.60
2023-05-05T04:36:39.063Z,64.59
2023-05-05T04:39:08.293Z,64.17
2023-05-05T04:41:38.279Z,64.26
2023-05-05T04:44:07.240Z,64.23
2023-05-05T04:46:37.052Z,64.02
2023-05-05T04:49:05.943Z,64.33
2023-05-05T04:51:35.582Z,64.65
2023-05-05T04:54:04.284Z,64.36
2023-05-05T04:56:32.469Z,64.92
2023-05-05T04:59:00.594Z,65.23
2023-05-05T05:01:29.002Z,65.13
2023-05-05T05:03:58.710Z,64.94
2023-05-05T05:06:27.236Z,64.40
2023-05-05T05:08:56.968Z,64.15
2023-05-05T05:11:25.105Z,64.29
2023-05-05T05:13:53.109Z,63.69
2023-05-05T05:16:21.532Z,64.07
2023-05-05T05:18:50.840Z,62.89
2023-05-05T05:21:21.076Z,63.01
2023-05-05T05:23:50.554Z,63.16
2023-05-05T05:26:19.059Z,62.37
2023-05-05T05:28:47.199Z,62.04
2023-05-05T05:31:15.224Z,62.05
2023-05-05T05:33:43.881Z,61.82
2023-05-05T05:36:13.794Z,61.52
2023-05-05T05:38:43.200Z,60.96
2023-05-05T05:41:11.953Z,60.29
2023-05-05T05:43:41.652Z,60.49
2023-05-05T05:46:10.538Z,60.37
2023-05-05T05:48:40.828Z,59.64
2023-05-05T05:51:09.502Z,59.59
2023-05-05T05:53:37.820Z,58.93
2023-05-05T05:56:08.576Z,58.98
2023-05-05T05:58:37.273Z,58.83
2023-05-05T06:01:05.648Z,57.67
2023-05-05T06:03:34.787Z,57.17
2023-05-05T06:06:03.016Z,56.79
2023-05-05T06:08:31.498Z,56.74
2023-05-05T06:11:00.727Z,56.40
2023-05-05T06:13:30.590Z,55.82
2023-05-05T06:15:59.200Z,54.74
2023-05-05T06:18:27.793Z,54.15
2023-05-05T06:20:56.153Z,53.08
2023-05-05T06:23:28.185Z,51.78
2023-05-05T06:26:01.237Z,51.01
2023-05-05T06:28:30.874Z,50.01
2023-05-05T06:30:59.045Z,48.48
2023-05-05T06:33:27.389Z,48.95
2023-05-05T06:35:55.740Z,48.82
2023-05-05T06:38:24.103Z,48.69
2023-05-05T06:40:52.124Z,48.44
2023-05-05T06:43:21.001Z,48.52
2023-05-05T06:45:56.588Z,47.96
2023-05-05T06:48:24.647Z,47.51
2023-05-05T06:50:52.622Z,46.51
2023-05-05T06:53:21.221Z,46.00
2023-05-05T06:55:49.804Z,45.31
2023-05-05T06:58:18.002Z,45.46
2023-05-05T07:00:46.268Z,44.01
2023-05-05T07:03:16.063Z,42.94
2023-05-05T07:05:44.402Z,42.64
2023-05-05T07:08:12.739Z,41.65
2023-05-05T07:10:41.777Z,41.57
2023-05-05T07:13:09.896Z,41.12
2023-05-05T07:15:38.088Z,40.25
2023-05-05T07:18:06.766Z,40.35
2023-05-05T07:20:36.483Z,39.12
2023-05-05T07:23:04.578Z,40.09
2023-05-05T07:25:33.342Z,39.73
2023-05-05T07:28:02.123Z,38.67
2023-05-05T07:30:30.471Z,38.77
2023-05-05T07:32:58.648Z,37.58
2023-05-05T07:35:27.833Z,37.39
2023-05-05T07:37:57.467Z,37.79
2023-05-05T07:42:54.009Z,36.24
2023-05-05T07:45:22.292Z,36.10
2023-05-05T07:47:50.694Z,35.72
2023-05-05T07:50:19.475Z,34.75
2023-05-05T07:52:53.951Z,35.05
2023-05-05T07:55:31.576Z,34.20
2023-05-05T07:57:59.740Z,34.90
2023-05-05T08:00:28.087Z,35.21
2023-05-05T08:02:56.806Z,33.85
2023-05-05T08:05:25.157Z,33.76
2023-05-05T08:07:53.357Z,33.84
2023-05-05T08:10:23.160Z,33.79
2023-05-05T08:12:54.546Z,33.32
2023-05-05T08:15:25.234Z,32.98
2023-05-05T08:17:56.004Z,33.78
2023-05-05T08:20:28.577Z,33.48
2023-05-05T08:22:56.648Z,33.45
2023-05-05T08:25:27.208Z,33.22
2023-05-05T08:27:56.882Z,32.50
2023-05-05T08:30:29.480Z,31.82
2023-05-05T08:32:58.998Z,32.94
2023-05-05T08:35:27.320Z,33.52
2023-05-05T08:37:57.345Z,32.47
2023-05-05T08:40:33.034Z,32.68
2023-05-05T08:43:02.928Z,31.79
2023-05-05T08:45:31.343Z,32.68
2023-05-05T08:48:02.699Z,31.31
2023-05-05T08:50:32.317Z,32.13
2023-05-05T08:53:10.878Z,31.88
2023-05-05T08:55:46.874Z,32.04
2023-05-05T08:58:18.856Z,32.13
2023-05-05T09:00:47.461Z,32.04
2023-05-05T09:03:16.841Z,31.36
2023-05-05T09:05:46.211Z,32.05
2023-05-05T09:08:16.571Z,31.33
2023-05-05T09:10:44.936Z,32.15
2023-05-05T09:13:13.299Z,32.11
2023-05-05T09:15:42.839Z,32.67
2023-05-05T09:18:12.147Z,32.42
2023-05-05T09:20:42.037Z,31.80
2023-05-05T09:23:12.106Z,32.05
2023-05-05T09:25:40.617Z,32.40
2023-05-05T09:28:13.420Z,32.13
2023-05-05T09:30:44.545Z,31.59
2023-05-05T09:33:13.365Z,31.58
2023-05-05T09:35:53.005Z,31.71
2023-05-05T09:38:22.885Z,33.48
2023-05-05T09:40:53.037Z,31.28
2023-05-05T09:43:23.461Z,30.64
2023-05-05T09:45:52.987Z,30.56
2023-05-05T09:48:28.209Z,31.12
2023-05-05T09:50:57.770Z,31.80
2023-05-05T09:53:26.910Z,31.73
2023-05-05T09:55:56.377Z,31.36
2023-05-05T09:58:26.414Z,32.75
2023-05-05T10:00:57.091Z,31.57
2023-05-05T10:03:25.971Z,32.12
2023-05-05T10:05:56.716Z,31.35
2023-05-05T10:08:26.906Z,31.16
2023-05-05T10:10:59.515Z,31.18
2023-05-05T10:13:28.813Z,31.15
2023-05-05T10:15:59.133Z,30.62
2023-05-05T10:18:29.057Z,31.53
2023-05-05T10:20:59.753Z,30.80
2023-05-05T10:23:37.093Z,31.47
2023-05-05T10:26:09.280Z,30.82
2023-05-05T10:28:47.154Z,31.25
2023-05-05T10:31:26.427Z,31.72
2023-05-05T10:34:01.712Z,32.16
2023-05-05T10:36:32.069Z,31.76
2023-05-05T10:39:01.581Z,32.84
2023-05-05T10:41:32.389Z,31.37
2023-05-05T10:44:04.333Z,31.32
2023-05-05T10:46:34.587Z,31.43
2023-05-05T10:49:15.789Z,31.63
2023-05-05T10:51:54.015Z,32.36
2023-05-05T10:54:31.305Z,31.28
2023-05-05T10:57:02.570Z,30.94
2023-05-05T10:59:44.914Z,30.63
2023-05-05T11:02:28.100Z,30.60
2023-05-05T11:05:15.403Z,31.15
2023-05-05T11:07:45.130Z,31.69
2023-05-05T11:10:16.166Z,32.55
2023-05-05T11:13:20.146Z,32.03
2023-05-05T11:15:50.235Z,32.99
2023-05-05T11:18:36.093Z,32.58
2023-05-05T11:21:19.045Z,32.50
2023-05-05T11:23:49.692Z,30.34
2023-05-05T11:26:20.580Z,30.76
2023-05-05T11:29:03.124Z,30.66
2023-05-05T11:31:32.319Z,30.03
2023-05-05T11:34:29.193Z,30.62
2023-05-05T11:37:01.533Z,31.18
2023-05-05T11:39:41.695Z,31.04
2023-05-05T11:42:23.475Z,30.75
2023-05-05T11:44:52.890Z,31.32
2023-05-05T11:47:33.757Z,31.38
2023-05-05T11:50:22.975Z,31.09
2023-05-05T11:52:51.347Z,31.69
2023-05-05T11:55:24.391Z,30.83
2023-05-05T11:57:53.369Z,30.69
2023-05-05T12:00:32.232Z,30.27
2023-05-05T12:03:00.990Z,30.98
2023-05-05T12:05:34.849Z,30.95
2023-05-05T12:08:04.937Z,31.75
2023-05-05T12:10:33.266Z,31.25
2023-05-05T12:13:01.769Z,31.75
2023-05-05T12:15:31.393Z,30.48
2023-05-05T12:18:02.669Z,30.81
2023-05-05T12:20:35.214Z,30.47
2023-05-05T12:23:06.267Z,30.38
2023-05-05T12:25:39.302Z,29.81
2023-05-05T12:28:09.546Z,30.10
2023-05-05T12:30:38.219Z,30.46
2023-05-05T12:33:07.747Z,31.04
2023-05-05T12:35:38.097Z,30.68
2023-05-05T12:38:06.420Z,31.39
2023-05-05T12:40:46.000Z,31.03
2023-05-05T12:43:29.578Z,32.22
2023-05-05T12:46:07.193Z,31.70
2023-05-05T12:48:38.075Z,32.26
2023-05-05T12:51:23.475Z,32.49
2023-05-05T12:54:03.895Z,31.97
2023-05-05T12:56:37.499Z,31.74
2023-05-05T12:59:08.242Z,31.48
2023-05-05T13:01:49.269Z,31.09
2023-05-05T13:04:18.833Z,32.40
2023-05-05T13:06:50.446Z,32.26
2023-05-05T13:09:26.121Z,32.72
2023-05-05T13:11:55.311Z,32.13
2023-05-05T13:14:24.528Z,32.41
2023-05-05T13:16:52.938Z,33.01
2023-05-05T13:19:22.686Z,32.82
2023-05-05T13:21:52.580Z,32.43
2023-05-05T13:24:28.709Z,33.37
2023-05-05T13:27:03.927Z,33.52
2023-05-05T13:29:32.522Z,34.29
2023-05-05T13:32:00.620Z,33.36
2023-05-05T13:34:28.749Z,33.44
2023-05-05T13:36:58.601Z,33.40
2023-05-05T13:39:26.546Z,33.24
2023-05-05T13:41:55.207Z,33.89
2023-05-05T13:44:23.592Z,33.16
2023-05-05T13:46:52.010Z,33.85
2023-05-05T13:49:20.533Z,33.62
2023-05-05T13:51:48.701Z,33.76
2023-05-05T13:54:18.297Z,34.03
2023-05-05T13:56:47.099Z,34.23
2023-05-05T13:59:15.406Z,34.12
2023-05-05T14:01:43.677Z,34.04
2023-05-05T14:04:11.818Z,34.25
2023-05-05T14:06:41.062Z,33.99
2023-05-05T14:09:09.337Z,34.52
2023-05-05T14:11:38.699Z,35.27
2023-05-05T14:14:07.190Z,34.67
2023-05-05T14:16:35.635Z,34.82
2023-05-05T14:19:04.334Z,35.46
2023-05-05T14:21:33.071Z,35.00
2023-05-05T14:24:01.323Z,34.98
2023-05-05T14:26:29.435Z,34.69
2023-05-05T14:28:58.740Z,35.48
2023-05-05T14:31:26.913Z,35.43
2023-05-05T14:33:54.967Z,35.76
2023-05-05T14:36:23.767Z,35.47
2023-05-05T14:38:51.990Z,35.68
2023-05-05T14:41:20.360Z,35.23
2023-05-05T14:43:48.632Z,35.77
2023-05-05T14:46:19.112Z,35.97
2023-05-05T14:48:48.832Z,35.81
2023-05-05T14:51:18.229Z,36.20
2023-05-05T14:53:46.823Z,35.88
2023-05-05T14:56:15.620Z,36.05
2023-05-05T14:58:44.365Z,35.61
2023-05-05T15:01:12.552Z,35.90
2023-05-05T15:03:42.196Z,36.38
2023-05-05T15:06:11.184Z,36.42
2023-05-05T15:08:40.158Z,37.04
2023-05-05T15:11:08.125Z,36.96
2023-05-05T15:13:38.866Z,36.53
2023-05-05T15:16:07.860Z,36.93
2023-05-05T15:18:35.999Z,36.67
2023-05-05T15:21:05.764Z,36.88
2023-05-05T15:23:34.112Z,37.26
2023-05-05T15:26:02.495Z,36.81
2023-05-05T15:28:30.632Z,37.54
2023-05-05T15:31:01.854Z,37.57
2023-05-05T15:33:30.945Z,37.13
2023-05-05T15:35:59.226Z,37.51
2023-05-05T15:38:29.714Z,36.99
2023-05-05T15:40:57.847Z,37.12
2023-05-05T15:43:27.110Z,36.93
2023-05-05T15:45:55.705Z,36.98
2023-05-05T15:48:23.950Z,37.36
2023-05-05T15:50:52.170Z,37.43
2023-05-05T15:53:20.074Z,37.56
2023-05-05T15:55:49.468Z,37.84
2023-05-05T15:58:17.476Z,37.46
2023-05-05T16:00:45.498Z,37.58
2023-05-05T16:03:14.023Z,37.67
2023-05-05T16:05:42.969Z,38.33
2023-05-05T16:08:11.356Z,38.29
2023-05-05T16:10:40.058Z,38.83
2023-05-05T16:13:09.436Z,39.56
2023-05-05T16:15:39.147Z,39.54
2023-05-05T16:18:07.286Z,38.97
2023-05-05T16:20:35.216Z,39.23
2023-05-05T16:23:03.100Z,38.98
2023-05-05T16:25:31.097Z,38.93
2023-05-05T16:28:00.479Z,39.21
2023-05-05T16:30:29.898Z,39.76
2023-05-05T16:32:58.024Z,39.28
2023-05-05T16:35:26.214Z,39.08
2023-05-05T16:37:54.431Z,39.61
2023-05-05T16:40:22.713Z,39.92
2023-05-05T16:42:50.921Z,39.94
2023-05-05T16:45:19.337Z,38.52
2023-05-05T16:47:48.935Z,39.26
2023-05-05T16:50:17.767Z,39.36
2023-05-05T16:52:46.344Z,40.60
2023-05-05T16:55:15.628Z,40.41
2023-05-05T16:57:43.998Z,40.55
2023-05-05T17:00:13.640Z,39.86
2023-05-05T17:02:41.846Z,40.53
2023-05-05T17:05:11.747Z,40.56
2023-05-05T17:07:41.326Z,40.81
2023-05-05T17:10:10.873Z,41.48
2023-05-05T17:12:39.463Z,40.75
2023-05-05T17:15:09.179Z,40.84
2023-05-05T17:17:37.347Z,41.34
2023-05-05T17:20:06.563Z,40.88
2023-05-05T17:22:36.558Z,41.03
2023-05-05T17:25:05.131Z,41.02
2023-05-05T17:27:33.158Z,41.09
2023-05-05T17:30:01.385Z,41.54
2023-05-05T17:32:29.757Z,41.55
2023-05-05T17:34:57.973Z,41.69
2023-05-05T17:37:26.781Z,42.37
2023-05-05T17:39:56.699Z,42.13
2023-05-05T17:42:27.157Z,42.36
2023-05-05T17:44:55.284Z,41.68
2023-05-05T17:47:24.426Z,42.08
2023-05-05T17:49:54.728Z,42.58
2023-05-05T17:52:25.330Z,42.92
2023-05-05T17:54:55.940Z,43.07
2023-05-05T17:57:25.237Z,42.96
2023-05-05T17:59:54.564Z,43.33
2023-05-05T18:02:24.277Z,43.34
2023-05-05T18:04:52.617Z,43.56
2023-05-05T18:07:20.764Z,43.87
2023-05-05T18:09:48.872Z,43.72
2023-05-05T18:12:17.535Z,44.01
2023-05-05T18:14:47.131Z,44.01
2023-05-05T18:17:16.106Z,43.80
2023-05-05T18:19:47.302Z,43.93
2023-05-05T18:22:17.713Z,44.09
2023-05-05T18:24:47.000Z,44.18
2023-05-05T18:27:15.326Z,45.22
2023-05-05T18:29:43.454Z,45.33
2023-05-05T18:32:12.831Z,46.02
2023-05-05T18:34:40.780Z,46.19
2023-05-05T18:37:08.971Z,46.29
2023-05-05T18:39:38.085Z,46.14
2023-05-05T18:42:07.965Z,46.02
2023-05-05T18:44:36.268Z,46.56
2023-05-05T18:47:04.352Z,46.16
2023-05-05T18:49:34.073Z,42.61
2023-05-05T18:52:04.404Z,47.84
2023-05-05T18:54:34.644Z,49.84
2023-05-05T18:57:03.666Z,51.60
2023-05-05T18:59:31.956Z,52.32
2023-05-05T19:02:01.336Z,53.56
2023-05-05T19:04:34.279Z,54.28
2023-05-05T19:07:07.870Z,55.77
2023-05-05T19:09:38.618Z,56.30
2023-05-05T19:12:09.005Z,57.34
2023-05-05T19:14:39.079Z,58.24
2023-05-05T19:17:07.786Z,58.61
2023-05-05T19:19:40.154Z,59.80
2023-05-05T19:22:10.770Z,61.24
2023-05-05T19:24:40.496Z,61.80
2023-05-05T19:27:15.502Z,63.04
2023-05-05T19:29:49.226Z,65.02
2023-05-05T19:32:19.293Z,65.66
2023-05-05T19:34:50.260Z,64.79
2023-05-05T19:37:20.079Z,65.36
2023-05-05T19:39:49.093Z,65.37
2023-05-05T19:42:18.286Z,64.63
2023-05-05T19:44:47.062Z,65.85
2023-05-05T19:47:15.766Z,65.54
2023-05-05T19:49:43.869Z,66.45
2023-05-05T19:52:11.916Z,66.91
2023-05-05T19:54:41.312Z,68.49
2023-05-05T19:57:09.522Z,69.55
2023-05-05T19:59:39.145Z,70.81
2023-05-05T20:02:09.454Z,71.25
2023-05-05T20:04:37.988Z,71.23
2023-05-05T20:07:06.251Z,71.38
2023-05-05T20:09:35.040Z,72.56
2023-05-05T20:12:04.882Z,72.61
2023-05-05T20:14:33.287Z,72.56
2023-05-05T20:17:01.340Z,72.25
2023-05-05T20:19:29.651Z,71.66
2023-05-05T20:21:59.296Z,71.62
2023-05-05T20:24:29.211Z,72.11
2023-05-05T20:26:57.857Z,72.17
2023-05-05T20:29:27.431Z,72.41
2023-05-05T20:31:56.711Z,71.95
2023-05-05T20:34:27.206Z,72.24
2023-05-05T20:36:55.520Z,72.84
2023-05-05T20:39:23.910Z,72.84
2023-05-05T20:41:52.167Z,72.79
2023-05-05T20:44:21.042Z,72.14
2023-05-05T20:46:50.541Z,72.72
2023-05-05T20:49:18.736Z,72.95
2023-05-05T20:51:46.692Z,72.99
2023-05-05T20:54:15.285Z,72.61
2023-05-05T20:56:43.577Z,72.65
2023-05-05T20:59:11.960Z,72.76
2023-05-05T21:01:40.362Z,73.22
2023-05-05T21:04:09.713Z,72.88
2023-05-05T21:06:38.458Z,73.23
2023-05-05T21:09:06.802Z,73.22
2023-05-05T21:11:34.774Z,73.40
2023-05-05T21:14:02.771Z,73.55
2023-05-05T21:16:31.141Z,73.93
2023-05-05T21:18:59.156Z,73.75
2023-05-05T21:21:28.514Z,73.91
2023-05-05T21:23:57.850Z,74.04
2023-05-05T21:26:26.093Z,73.97
2023-05-05T21:28:54.598Z,73.39
2023-05-05T21:31:22.826Z,73.64
2023-05-05T21:33:53.045Z,74.44
2023-05-05T21:36:21.318Z,73.93
2023-05-05T21:38:51.120Z,74.09
2023-05-05T21:41:20.126Z,74.30
2023-05-05T21:43:48.219Z,74.31
2023-05-05T21:46:17.899Z,74.78
2023-05-05T21:48:47.938Z,74.12
2023-05-05T21:51:16.054Z,74.38
2023-05-05T21:53:44.261Z,74.66
2023-05-05T21:56:13.774Z,74.10
2023-05-05T21:58:42.153Z,73.42
2023-05-05T22:01:10.906Z,74.42
2023-05-05T22:03:39.253Z,73.82
2023-05-05T22:06:28.173Z,72.99
2023-05-05T22:09:15.078Z,73.69
2023-05-05T22:11:44.715Z,72.59
2023-05-05T22:14:13.317Z,72.87
2023-05-05T22:16:41.627Z,73.23
2023-05-05T22:19:09.950Z,72.94
2023-05-05T22:21:38.017Z,72.93
2023-05-05T22:24:07.476Z,72.64
2023-05-05T22:26:35.580Z,73.16
2023-05-05T22:29:05.083Z,72.86
2023-05-05T22:31:33.184Z,72.84
2023-05-05T22:34:02.347Z,72.78
2023-05-05T22:36:31.262Z,72.42
2023-05-05T22:38:59.313Z,72.81
2023-05-05T22:41:30.851Z,72.27
2023-05-05T22:43:59.277Z,72.50
2023-05-05T22:46:28.948Z,71.98
2023-05-05T22:48:56.964Z,72.04
2023-05-05T22:51:25.187Z,72.45
2023-05-05T22:53:54.820Z,72.02
2023-05-05T22:56:22.804Z,72.00
2023-05-05T22:58:50.959Z,72.58
2023-05-05T23:01:19.170Z,73.10
2023-05-05T23:03:49.073Z,73.02
2023-05-05T23:06:17.550Z,73.31
2023-05-05T23:08:45.600Z,73.27
2023-05-05T23:11:13.554Z,73.69
2023-05-05T23:13:41.952Z,73.33
2023-05-05T23:16:10.017Z,73.20
2023-05-05T23:18:38.783Z,74.00
2023-05-05T23:21:09.962Z,74.48
2023-05-05T23:23:38.393Z,74.77
2023-05-05T23:26:06.494Z,74.16
2023-05-05T23:28:34.743Z,74.36
2023-05-05T23:31:02.933Z,73.79
2023-05-05T23:33:31.117Z,74.17
2023-05-05T23:35:59.105Z,73.95
2023-05-05T23:38:28.579Z,74.55
2023-05-05T23:40:56.720Z,74.36
2023-05-05T23:43:24.956Z,74.03
2023-05-05T23:45:53.328Z,75.07
2023-05-05T23:48:21.629Z,74.39
2023-05-05T23:50:50.440Z,74.69
2023-05-05T23:53:18.614Z,74.93
2023-05-05T23:55:48.359Z,74.82
2023-05-05T23:58:16.353Z,74.80
